createdAt,value
2018-06-09T00:00:32.043Z,68.62
2018-06-09T00:01:32.047Z,68.81
2018-06-09T00:03:25.074Z,68.43
2018-06-09T00:04:25.103Z,68.04
2018-06-09T00:06:18.149Z,68.04
2018-06-09T00:07:18.159Z,68.04
2018-06-09T00:09:11.186Z,68.81
2018-06-09T00:10:11.215Z,68.91
2018-06-09T00:12:04.268Z,68.91
2018-06-09T00:13:04.275Z,68.71
2018-06-09T00:14:57.300Z,68.91
2018-06-09T00:15:57.331Z,68.23
2018-06-09T00:17:50.277Z,69.00
2018-06-09T00:18:50.286Z,68.71
2018-06-09T00:20:43.744Z,67.94
2018-06-09T00:21:43.751Z,68.52
2018-06-09T00:23:36.776Z,67.85
2018-06-09T00:24:36.807Z,67.65
2018-06-09T00:26:29.857Z,67.55
2018-06-09T00:27:29.869Z,67.94
2018-06-09T00:29:22.891Z,67.36
2018-06-09T00:30:22.925Z,66.88
2018-06-09T00:32:15.971Z,66.78
2018-06-09T00:33:15.978Z,66.97
2018-06-09T00:35:09.003Z,67.04
2018-06-09T00:36:09.032Z,66.94
2018-06-09T00:38:02.082Z,66.94
2018-06-09T00:39:02.089Z,67.23
2018-06-09T00:40:55.116Z,66.75
2018-06-09T00:41:55.144Z,66.85
2018-06-09T00:43:48.194Z,67.14
2018-06-09T00:44:48.201Z,66.08
2018-06-09T00:46:41.250Z,66.49
2018-06-09T00:47:41.258Z,66.97
2018-06-09T00:49:34.286Z,66.75
2018-06-09T00:50:34.314Z,66.85
2018-06-09T00:52:27.771Z,66.56
2018-06-09T00:53:27.782Z,67.23
2018-06-09T00:55:20.810Z,67.33
2018-06-09T00:56:20.836Z,67.52
2018-06-09T00:58:13.883Z,67.52
2018-06-09T00:59:13.893Z,67.71
2018-06-09T01:01:06.925Z,68.29
2018-06-09T01:02:06.954Z,68.19
2018-06-09T01:03:59.996Z,67.43
2018-06-09T01:05:00.013Z,67.33
2018-06-09T01:06:52.961Z,67.58
2018-06-09T01:07:52.961Z,67.71
2018-06-09T01:09:45.988Z,67.97
2018-06-09T01:10:46.017Z,67.71
2018-06-09T01:12:39.065Z,67.23
2018-06-09T01:13:39.076Z,67.52
2018-06-09T01:15:32.104Z,67.71
2018-06-09T01:16:32.130Z,68.10
2018-06-09T01:18:25.180Z,67.91
2018-06-09T01:19:25.186Z,68.26
2018-06-09T01:21:18.216Z,68.19
2018-06-09T01:22:18.249Z,68.16
2018-06-09T01:24:11.292Z,67.78
2018-06-09T01:25:11.301Z,68.65
2018-06-09T01:27:04.329Z,68.65
2018-06-09T01:28:04.354Z,67.78
2018-06-09T01:29:57.404Z,67.97
2018-06-09T01:30:57.416Z,68.45
2018-06-09T01:32:50.461Z,67.88
2018-06-09T01:33:50.468Z,68.35
2018-06-09T01:35:43.497Z,68.65
2018-06-09T01:36:43.523Z,68.61
2018-06-09T01:38:36.573Z,68.99
2018-06-09T01:39:36.583Z,68.61
2018-06-09T01:41:29.512Z,69.09
2018-06-09T01:42:29.535Z,69.19
2018-06-09T01:44:22.582Z,69.38
2018-06-09T01:45:22.591Z,69.93
2018-06-09T01:47:15.618Z,69.83
2018-06-09T01:48:15.649Z,70.60
2018-06-09T01:50:08.693Z,70.02
2018-06-09T01:51:08.701Z,70.02
2018-06-09T01:53:01.653Z,70.21
2018-06-09T01:54:01.655Z,70.41
2018-06-09T01:55:55.095Z,69.83
2018-06-09T01:56:55.122Z,70.21
2018-06-09T01:58:48.174Z,69.93
2018-06-09T01:59:48.179Z,70.12
2018-06-09T02:01:41.214Z,70.12
2018-06-09T02:02:41.237Z,69.83
2018-06-09T02:04:34.181Z,70.21
2018-06-09T02:05:34.190Z,69.73
2018-06-09T02:07:27.119Z,70.02
2018-06-09T02:08:27.144Z,70.41
2018-06-09T02:10:20.191Z,70.21
2018-06-09T02:11:20.205Z,70.21
2018-06-09T02:13:13.162Z,70.12
2018-06-09T02:14:13.154Z,70.60
2018-06-09T02:16:06.187Z,70.31
2018-06-09T02:17:06.212Z,69.67
2018-06-09T02:18:59.261Z,69.48
2018-06-09T02:19:59.268Z,69.15
2018-06-09T02:21:52.299Z,68.99
2018-06-09T02:22:52.327Z,68.99
2018-06-09T02:24:45.783Z,68.77
2018-06-09T02:25:45.798Z,68.48
2018-06-09T02:27:38.822Z,68.58
2018-06-09T02:28:38.849Z,68.87
2018-06-09T02:30:31.905Z,68.61
2018-06-09T02:31:31.905Z,68.80
2018-06-09T02:33:25.344Z,68.71
2018-06-09T02:34:25.371Z,68.80
2018-06-09T02:36:18.827Z,68.68
2018-06-09T02:37:18.837Z,68.68
2018-06-09T02:39:11.884Z,68.96
2018-06-09T02:40:11.893Z,68.58
2018-06-09T02:42:04.924Z,68.68
2018-06-09T02:43:04.959Z,69.15
2018-06-09T02:44:58.000Z,69.25
2018-06-09T02:45:58.010Z,69.64
2018-06-09T02:47:51.037Z,69.45
2018-06-09T02:48:51.062Z,69.35
2018-06-09T02:50:44.111Z,70.12
2018-06-09T02:51:44.120Z,70.02
2018-06-09T02:53:37.149Z,70.31
2018-06-09T02:54:37.210Z,70.21
2018-06-09T02:56:30.229Z,70.70
2018-06-09T02:57:30.232Z,70.70
2018-06-09T02:59:23.286Z,70.60
2018-06-09T03:00:23.292Z,70.18
2018-06-09T03:02:16.321Z,70.86
2018-06-09T03:03:16.351Z,71.14
2018-06-09T03:05:09.293Z,71.34
2018-06-09T03:06:09.299Z,71.72
2018-06-09T03:08:02.741Z,71.62
2018-06-09T03:09:02.765Z,71.72
2018-06-09T03:10:55.711Z,71.34
2018-06-09T03:11:55.719Z,71.81
2018-06-09T03:13:48.646Z,71.91
2018-06-09T03:14:48.676Z,71.81
2018-06-09T03:16:41.620Z,72.01
2018-06-09T03:17:41.630Z,72.30
2018-06-09T03:19:34.715Z,71.56
2018-06-09T03:20:34.684Z,71.47
2018-06-09T03:22:27.630Z,70.89
2018-06-09T03:23:27.639Z,70.89
2018-06-09T03:25:20.587Z,70.41
2018-06-09T03:26:20.592Z,70.60
2018-06-09T03:28:13.519Z,70.41
2018-06-09T03:29:13.547Z,70.25
2018-06-09T03:31:06.492Z,70.35
2018-06-09T03:32:06.501Z,70.15
2018-06-09T03:33:59.429Z,70.44
2018-06-09T03:34:59.455Z,70.15
2018-06-09T03:36:52.402Z,70.15
2018-06-09T03:37:52.410Z,69.87
2018-06-09T03:39:45.339Z,70.35
2018-06-09T03:40:45.362Z,70.15
2018-06-09T03:42:38.315Z,70.44
2018-06-09T03:43:38.319Z,70.54
2018-06-09T03:45:31.366Z,70.54
2018-06-09T03:46:31.373Z,70.54
2018-06-09T03:48:24.302Z,70.89
2018-06-09T03:49:24.328Z,70.98
2018-06-09T03:51:18.816Z,70.70
2018-06-09T03:52:18.821Z,71.18
2018-06-09T03:54:13.282Z,70.98
2018-06-09T03:55:13.307Z,70.73
2018-06-09T03:57:06.259Z,71.08
2018-06-09T03:58:06.263Z,70.25
2018-06-09T03:59:59.182Z,70.44
2018-06-09T04:00:59.210Z,70.54
2018-06-09T04:02:52.148Z,70.15
2018-06-09T04:03:52.159Z,70.15
2018-06-09T04:05:45.080Z,69.83
2018-06-09T04:06:45.106Z,70.73
2018-06-09T04:08:38.043Z,70.25
2018-06-09T04:09:38.056Z,70.06
2018-06-09T04:11:30.998Z,70.25
2018-06-09T04:12:31.000Z,70.06
2018-06-09T04:14:23.918Z,70.15
2018-06-09T04:15:23.946Z,70.25
2018-06-09T04:17:17.378Z,70.35
2018-06-09T04:18:17.386Z,70.25
2018-06-09T04:20:10.312Z,70.06
2018-06-09T04:21:10.334Z,69.38
2018-06-09T04:23:03.274Z,69.57
2018-06-09T04:24:03.283Z,69.61
2018-06-09T04:25:56.201Z,68.74
2018-06-09T04:26:56.228Z,68.65
2018-06-09T04:28:49.171Z,68.55
2018-06-09T04:29:49.177Z,68.65
2018-06-09T04:31:42.124Z,68.84
2018-06-09T04:32:42.129Z,68.84
2018-06-09T04:34:35.052Z,67.97
2018-06-09T04:35:35.077Z,67.88
2018-06-09T04:37:28.024Z,68.10
2018-06-09T04:38:28.028Z,67.52
2018-06-09T04:40:20.956Z,67.07
2018-06-09T04:41:20.981Z,67.17
2018-06-09T04:43:13.939Z,65.27
2018-06-09T04:44:13.953Z,64.34
2018-06-09T04:46:06.913Z,63.60
2018-06-09T04:47:06.896Z,62.18
2018-06-09T04:48:59.867Z,60.21
2018-06-09T04:49:59.845Z,58.59
2018-06-09T04:51:53.264Z,57.39
2018-06-09T04:52:53.297Z,55.38
2018-06-09T04:54:46.249Z,53.47
2018-06-09T04:55:46.250Z,51.93
2018-06-09T04:57:39.202Z,51.65
2018-06-09T04:58:39.210Z,50.89
2018-06-09T05:00:32.136Z,49.85
2018-06-09T05:01:32.168Z,49.68
2018-06-09T05:03:25.618Z,49.12
2018-06-09T05:04:25.630Z,47.76
2018-06-09T05:06:18.561Z,46.71
2018-06-09T05:07:18.683Z,46.42
2018-06-09T05:09:12.035Z,45.76
2018-06-09T05:10:12.051Z,45.94
2018-06-09T05:12:04.980Z,45.81
2018-06-09T05:13:05.067Z,45.91
2018-06-09T05:14:57.970Z,45.42
2018-06-09T05:15:57.975Z,45.91
2018-06-09T05:17:50.940Z,45.94
2018-06-09T05:18:50.942Z,45.42
2018-06-09T05:20:43.875Z,45.94
2018-06-09T05:21:43.905Z,46.20
2018-06-09T05:23:36.865Z,46.50
2018-06-09T05:24:36.888Z,46.11
2018-06-09T05:26:29.800Z,46.59
2018-06-09T05:27:29.832Z,46.40
2018-06-09T05:29:23.324Z,46.11
2018-06-09T05:30:23.338Z,47.17
2018-06-09T05:32:16.273Z,47.15
2018-06-09T05:33:16.311Z,46.96
2018-06-09T05:35:09.256Z,47.37
2018-06-09T05:36:09.269Z,47.17
2018-06-09T05:38:02.225Z,46.88
2018-06-09T05:39:02.234Z,46.13
2018-06-09T05:40:55.171Z,45.45
2018-06-09T05:41:55.210Z,46.05
2018-06-09T05:43:48.157Z,45.28
2018-06-09T05:44:48.173Z,44.79
2018-06-09T05:46:41.596Z,45.10
2018-06-09T05:47:41.630Z,44.62
2018-06-09T05:49:34.625Z,44.52
2018-06-09T05:50:34.600Z,44.32
2018-06-09T05:52:27.537Z,43.95
2018-06-09T05:53:27.573Z,43.68
2018-06-09T05:55:20.530Z,43.12
2018-06-09T05:56:20.541Z,42.54
2018-06-09T05:58:13.482Z,42.73
2018-06-09T05:59:13.513Z,41.97
2018-06-09T06:01:06.472Z,42.26
2018-06-09T06:02:06.484Z,42.29
2018-06-09T06:03:59.472Z,42.09
2018-06-09T06:04:59.456Z,41.67
2018-06-09T06:06:52.888Z,41.02
2018-06-09T06:07:52.924Z,40.53
2018-06-09T06:09:45.881Z,40.92
2018-06-09T06:10:45.899Z,40.64
2018-06-09T06:12:38.840Z,39.96
2018-06-09T06:13:38.878Z,40.43
2018-06-09T06:15:31.837Z,41.02
2018-06-09T06:16:31.849Z,40.82
2018-06-09T06:18:24.789Z,39.45
2018-06-09T06:19:24.823Z,40.14
2018-06-09T06:21:17.784Z,41.66
2018-06-09T06:22:17.804Z,41.56
2018-06-09T06:24:10.750Z,42.02
2018-06-09T06:25:10.785Z,42.59
2018-06-09T06:27:03.741Z,43.47
2018-06-09T06:28:03.759Z,43.76
2018-06-09T06:29:56.726Z,44.42
2018-06-09T06:30:56.732Z,44.79
2018-06-09T06:32:49.671Z,45.28
2018-06-09T06:33:49.705Z,45.57
2018-06-09T06:35:42.667Z,45.45
2018-06-09T06:36:42.684Z,46.23
2018-06-09T06:38:35.617Z,46.69
2018-06-09T06:39:35.650Z,47.08
2018-06-09T06:41:28.609Z,47.56
2018-06-09T06:42:28.616Z,48.05
2018-06-09T06:44:21.550Z,46.96
2018-06-09T06:45:21.584Z,47.44
2018-06-09T06:47:14.545Z,48.13
2018-06-09T06:48:14.548Z,48.83
2018-06-09T06:50:07.486Z,48.15
2018-06-09T06:51:07.516Z,47.17
2018-06-09T06:53:00.470Z,46.98
2018-06-09T06:54:00.482Z,47.37
2018-06-09T06:55:53.438Z,47.76
2018-06-09T06:56:53.451Z,47.76
2018-06-09T06:58:46.385Z,47.42
2018-06-09T06:59:46.419Z,47.42
2018-06-09T07:01:39.376Z,46.54
2018-06-09T07:02:39.394Z,47.22
2018-06-09T07:04:32.324Z,46.64
2018-06-09T07:05:32.358Z,47.61
2018-06-09T07:07:25.315Z,46.73
2018-06-09T07:08:25.331Z,46.25
2018-06-09T07:10:18.268Z,45.86
2018-06-09T07:11:18.306Z,45.47
2018-06-09T07:13:11.260Z,45.86
2018-06-09T07:14:11.275Z,46.15
2018-06-09T07:16:04.217Z,46.54
2018-06-09T07:17:04.248Z,46.54
2018-06-09T07:18:57.206Z,46.64
2018-06-09T07:19:57.218Z,47.13
2018-06-09T07:21:50.181Z,47.03
2018-06-09T07:22:50.195Z,47.20
2018-06-09T07:24:43.136Z,47.88
2018-06-09T07:25:43.172Z,47.00
2018-06-09T07:27:36.124Z,47.20
2018-06-09T07:28:36.136Z,47.20
2018-06-09T07:30:29.072Z,47.32
2018-06-09T07:31:29.105Z,47.52
2018-06-09T07:33:22.065Z,47.42
2018-06-09T07:34:22.088Z,47.22
2018-06-09T07:36:15.018Z,47.39
2018-06-09T07:37:15.053Z,47.00
2018-06-09T07:39:08.007Z,45.86
2018-06-09T07:40:08.060Z,47.39
2018-06-09T07:42:00.960Z,47.49
2018-06-09T07:43:00.990Z,47.59
2018-06-09T07:44:53.944Z,47.10
2018-06-09T07:45:53.959Z,47.69
2018-06-09T07:47:46.914Z,47.71
2018-06-09T07:48:46.927Z,48.29
2018-06-09T07:50:39.862Z,47.22
2018-06-09T07:51:39.896Z,46.93
2018-06-09T07:53:32.850Z,47.03
2018-06-09T07:54:32.860Z,47.39
2018-06-09T07:56:25.832Z,49.05
2018-06-09T07:57:25.861Z,48.07
2018-06-09T07:59:18.817Z,48.00
2018-06-09T08:00:18.828Z,47.13
2018-06-09T08:02:11.763Z,45.95
2018-06-09T08:03:11.792Z,46.34
2018-06-09T08:05:04.747Z,47.78
2018-06-09T08:06:04.761Z,47.78
2018-06-09T08:07:57.693Z,48.68
2018-06-09T08:08:57.724Z,48.27
2018-06-09T08:10:50.684Z,48.75
2018-06-09T08:11:50.694Z,48.19
2018-06-09T08:13:43.647Z,47.42
2018-06-09T08:14:43.664Z,47.13
2018-06-09T08:16:36.589Z,46.44
2018-06-09T08:17:36.622Z,47.80
2018-06-09T08:19:29.637Z,48.97
2018-06-09T08:20:29.594Z,49.17
2018-06-09T08:22:22.519Z,48.00
2018-06-09T08:23:22.553Z,48.19
2018-06-09T08:25:15.507Z,47.83
2018-06-09T08:26:15.517Z,47.61
2018-06-09T08:28:08.454Z,47.90
2018-06-09T08:29:08.541Z,47.42
2018-06-09T08:31:01.936Z,48.19
2018-06-09T08:32:01.949Z,47.83
2018-06-09T08:33:55.374Z,47.83
2018-06-09T08:34:55.408Z,47.61
2018-06-09T08:36:48.362Z,48.12
2018-06-09T08:37:48.374Z,47.63
2018-06-09T08:39:41.337Z,48.80
2018-06-09T08:40:41.338Z,48.22
2018-06-09T08:42:34.274Z,47.25
2018-06-09T08:43:34.308Z,47.05
2018-06-09T08:45:27.263Z,47.34
2018-06-09T08:46:27.278Z,47.52
2018-06-09T08:48:20.211Z,47.80
2018-06-09T08:49:20.246Z,47.90
2018-06-09T08:51:13.690Z,47.25
2018-06-09T08:52:13.711Z,46.47
2018-06-09T08:54:06.638Z,47.25
2018-06-09T08:55:06.669Z,46.17
2018-06-09T08:56:59.624Z,46.47
2018-06-09T08:57:59.635Z,47.25
2018-06-09T08:59:52.572Z,47.25
2018-06-09T09:00:52.604Z,47.07
2018-06-09T09:02:45.560Z,47.44
2018-06-09T09:03:45.566Z,46.49
2018-06-09T09:05:38.521Z,45.90
2018-06-09T09:06:38.532Z,45.71
2018-06-09T09:08:31.472Z,45.90
2018-06-09T09:09:31.502Z,47.17
2018-06-09T09:11:24.948Z,47.00
2018-06-09T09:12:24.960Z,47.36
2018-06-09T09:14:17.893Z,46.31
2018-06-09T09:15:17.925Z,45.64
2018-06-09T09:17:10.883Z,46.22
2018-06-09T09:18:10.892Z,46.12
2018-06-09T09:20:03.826Z,44.97
2018-06-09T09:21:03.856Z,45.85
2018-06-09T09:22:56.812Z,46.14
2018-06-09T09:23:56.826Z,46.04
2018-06-09T09:25:49.764Z,45.15
2018-06-09T09:26:49.792Z,44.46
2018-06-09T09:28:42.747Z,44.97
2018-06-09T09:29:42.757Z,45.25
2018-06-09T09:31:35.715Z,45.92
2018-06-09T09:32:35.722Z,46.22
2018-06-09T09:34:28.658Z,45.73
2018-06-09T09:35:28.692Z,46.12
2018-06-09T09:37:21.647Z,46.51
2018-06-09T09:38:21.657Z,46.51
2018-06-09T09:40:14.594Z,46.14
2018-06-09T09:41:14.626Z,46.63
2018-06-09T09:43:07.580Z,46.83
2018-06-09T09:44:07.590Z,47.31
2018-06-09T09:46:00.524Z,45.75
2018-06-09T09:47:00.557Z,45.75
2018-06-09T09:48:53.512Z,46.44
2018-06-09T09:49:53.525Z,47.51
2018-06-09T09:51:46.455Z,45.65
2018-06-09T09:52:46.489Z,45.97
2018-06-09T09:54:39.445Z,45.95
2018-06-09T09:55:39.455Z,45.85
2018-06-09T09:57:32.902Z,46.44
2018-06-09T09:58:32.921Z,45.95
2018-06-09T10:00:25.852Z,46.07
2018-06-09T10:01:25.884Z,45.00
2018-06-09T10:03:18.840Z,45.90
2018-06-09T10:04:18.853Z,45.21
2018-06-09T10:06:11.792Z,45.41
2018-06-09T10:07:11.824Z,45.02
2018-06-09T10:09:04.782Z,45.70
2018-06-09T10:10:04.794Z,45.31
2018-06-09T10:11:57.760Z,45.48
2018-06-09T10:12:57.761Z,46.66
2018-06-09T10:14:50.697Z,46.66
2018-06-09T10:15:50.732Z,45.80
2018-06-09T10:17:44.183Z,45.70
2018-06-09T10:18:44.195Z,45.31
2018-06-09T10:20:37.125Z,45.39
2018-06-09T10:21:37.160Z,45.58
2018-06-09T10:23:30.118Z,45.95
2018-06-09T10:24:30.132Z,45.95
2018-06-09T10:26:23.070Z,47.31
2018-06-09T10:27:23.143Z,46.63
2018-06-09T10:29:16.073Z,45.36
2018-06-09T10:30:16.073Z,45.17
2018-06-09T10:32:09.012Z,45.07
2018-06-09T10:33:09.042Z,46.04
2018-06-09T10:35:02.021Z,46.04
2018-06-09T10:36:02.012Z,46.66
2018-06-09T10:37:54.965Z,45.41
2018-06-09T10:38:54.974Z,44.82
2018-06-09T10:40:48.401Z,44.14
2018-06-09T10:41:48.435Z,44.92
2018-06-09T10:43:41.391Z,43.85
2018-06-09T10:44:41.398Z,44.63
2018-06-09T10:46:34.336Z,44.82
2018-06-09T10:47:34.372Z,44.82
2018-06-09T10:49:27.326Z,44.45
2018-06-09T10:50:27.340Z,45.14
2018-06-09T10:52:20.274Z,45.12
2018-06-09T10:53:20.306Z,44.94
2018-06-09T10:55:13.261Z,45.14
2018-06-09T10:56:13.272Z,44.74
2018-06-09T10:58:06.227Z,43.65
2018-06-09T10:59:06.236Z,44.14
2018-06-09T11:00:59.171Z,44.14
2018-06-09T11:01:59.209Z,42.68
2018-06-09T11:03:53.661Z,43.07
2018-06-09T11:04:53.676Z,43.33
2018-06-09T11:06:46.607Z,42.85
2018-06-09T11:07:46.641Z,42.58
2018-06-09T11:09:39.600Z,42.58
2018-06-09T11:10:39.614Z,42.58
2018-06-09T11:12:32.545Z,41.33
2018-06-09T11:13:32.579Z,40.25
2018-06-09T11:15:25.534Z,38.40
2018-06-09T11:16:25.549Z,38.98
2018-06-09T11:18:19.023Z,38.57
2018-06-09T11:19:19.022Z,38.98
2018-06-09T11:21:11.980Z,41.72
2018-06-09T11:22:11.989Z,42.50
2018-06-09T11:24:04.947Z,42.60
2018-06-09T11:25:04.960Z,42.89
2018-06-09T11:26:57.900Z,41.42
2018-06-09T11:27:57.932Z,41.23
2018-06-09T11:29:51.380Z,41.44
2018-06-09T11:30:51.417Z,40.94
2018-06-09T11:32:44.332Z,41.62
2018-06-09T11:33:44.361Z,42.30
2018-06-09T11:35:37.318Z,41.80
2018-06-09T11:36:37.333Z,42.21
2018-06-09T11:38:30.271Z,40.17
2018-06-09T11:39:30.300Z,39.69
2018-06-09T11:41:23.256Z,40.90
2018-06-09T11:42:23.271Z,39.53
2018-06-09T11:44:16.230Z,38.45
2018-06-09T11:45:16.278Z,37.45
2018-06-09T11:47:09.214Z,38.73
2018-06-09T11:48:09.246Z,38.61
2018-06-09T11:50:02.164Z,39.39
2018-06-09T11:51:02.177Z,39.39
2018-06-09T11:52:55.108Z,40.00
2018-06-09T11:53:55.146Z,39.41
2018-06-09T11:55:48.097Z,38.84
2018-06-09T11:56:48.107Z,39.04
2018-06-09T11:58:41.064Z,38.92
2018-06-09T11:59:41.072Z,38.92
2018-06-09T12:01:34.033Z,39.12
2018-06-09T12:02:34.047Z,39.12
2018-06-09T12:04:26.985Z,39.20
2018-06-09T12:05:27.018Z,38.63
2018-06-09T12:07:19.974Z,37.95
2018-06-09T12:08:19.987Z,37.75
2018-06-09T12:10:12.941Z,37.75
2018-06-09T12:11:12.956Z,37.75
2018-06-09T12:13:05.890Z,37.45
2018-06-09T12:14:05.949Z,38.92
2018-06-09T12:15:58.877Z,37.65
2018-06-09T12:16:58.893Z,37.65
2018-06-09T12:18:51.830Z,37.45
2018-06-09T12:19:51.864Z,37.06
2018-06-09T12:21:44.823Z,37.55
2018-06-09T12:22:44.836Z,39.02
2018-06-09T12:24:37.772Z,39.80
2018-06-09T12:25:37.809Z,38.12
2018-06-09T12:27:30.760Z,37.63
2018-06-09T12:28:30.773Z,37.83
2018-06-09T12:30:23.725Z,37.93
2018-06-09T12:31:23.742Z,37.63
2018-06-09T12:33:16.672Z,38.12
2018-06-09T12:34:16.704Z,38.22
2018-06-09T12:36:09.660Z,37.43
2018-06-09T12:37:09.674Z,38.12
2018-06-09T12:39:02.629Z,38.81
2018-06-09T12:40:02.655Z,39.49
2018-06-09T12:41:55.611Z,38.81
2018-06-09T12:42:55.627Z,39.49
2018-06-09T12:44:48.564Z,38.43
2018-06-09T12:45:48.590Z,38.53
2018-06-09T12:47:41.545Z,38.92
2018-06-09T12:48:41.564Z,39.10
2018-06-09T12:50:34.488Z,38.71
2018-06-09T12:51:34.573Z,39.00
2018-06-09T12:53:27.476Z,37.73
2018-06-09T12:54:27.488Z,37.73
2018-06-09T12:56:20.448Z,38.42
2018-06-09T12:57:20.455Z,38.61
2018-06-09T12:59:13.390Z,38.53
2018-06-09T13:00:13.424Z,38.63
2018-06-09T13:02:06.383Z,38.53
2018-06-09T13:03:06.396Z,37.85
2018-06-09T13:04:59.332Z,37.47
2018-06-09T13:05:59.362Z,37.67
2018-06-09T13:07:52.317Z,38.92
2018-06-09T13:08:52.327Z,38.65
2018-06-09T13:10:45.328Z,37.27
2018-06-09T13:11:45.302Z,38.35
2018-06-09T13:13:38.251Z,37.27
2018-06-09T13:14:38.266Z,37.65
2018-06-09T13:16:31.199Z,38.82
2018-06-09T13:17:31.234Z,37.35
2018-06-09T13:19:24.208Z,36.96
2018-06-09T13:20:24.201Z,37.75
2018-06-09T13:22:17.157Z,37.96
2018-06-09T13:23:17.172Z,38.84
2018-06-09T13:25:10.108Z,37.67
2018-06-09T13:26:10.145Z,38.26
2018-06-09T13:28:03.099Z,37.75
2018-06-09T13:29:03.112Z,38.63
2018-06-09T13:30:56.045Z,38.14
2018-06-09T13:31:56.080Z,39.31
2018-06-09T13:33:49.529Z,38.34
2018-06-09T13:34:49.544Z,38.82
2018-06-09T13:36:42.502Z,39.43
2018-06-09T13:37:42.510Z,38.75
2018-06-09T13:39:35.465Z,39.53
2018-06-09T13:40:35.477Z,39.04
2018-06-09T13:42:28.415Z,39.31
2018-06-09T13:43:28.446Z,38.63
2018-06-09T13:45:21.401Z,39.39
2018-06-09T13:46:21.413Z,38.61
2018-06-09T13:48:14.367Z,38.51
2018-06-09T13:49:14.381Z,39.29
2018-06-09T13:51:07.319Z,38.81
2018-06-09T13:52:07.357Z,39.20
2018-06-09T13:54:00.308Z,39.98
2018-06-09T13:55:00.320Z,39.41
2018-06-09T13:56:53.253Z,38.92
2018-06-09T13:57:53.287Z,41.00
2018-06-09T13:59:46.238Z,40.90
2018-06-09T14:00:46.251Z,40.70
2018-06-09T14:02:39.682Z,40.78
2018-06-09T14:03:39.714Z,40.88
2018-06-09T14:05:32.669Z,40.50
2018-06-09T14:06:32.681Z,40.60
2018-06-09T14:08:25.636Z,40.60
2018-06-09T14:09:25.650Z,41.49
2018-06-09T14:11:18.593Z,40.31
2018-06-09T14:12:18.622Z,39.92
2018-06-09T14:14:11.583Z,39.72
2018-06-09T14:15:11.597Z,39.43
2018-06-09T14:17:04.529Z,40.72
2018-06-09T14:18:04.564Z,42.09
2018-06-09T14:19:57.515Z,40.82
2018-06-09T14:20:57.529Z,40.53
2018-06-09T14:22:50.472Z,39.54
2018-06-09T14:23:50.502Z,40.92
2018-06-09T14:25:43.454Z,40.63
2018-06-09T14:26:43.469Z,40.53
2018-06-09T14:28:36.403Z,39.64
2018-06-09T14:29:36.435Z,41.02
2018-06-09T14:31:29.393Z,39.45
2018-06-09T14:32:29.408Z,39.54
2018-06-09T14:34:22.368Z,40.50
2018-06-09T14:35:22.372Z,40.80
2018-06-09T14:37:15.315Z,40.70
2018-06-09T14:38:15.342Z,40.63
2018-06-09T14:40:08.785Z,40.80
2018-06-09T14:41:08.805Z,40.60
2018-06-09T14:43:01.736Z,38.94
2018-06-09T14:44:01.774Z,38.16
2018-06-09T14:45:54.725Z,37.96
2018-06-09T14:46:54.736Z,38.84
2018-06-09T14:48:47.670Z,38.86
2018-06-09T14:49:47.702Z,38.96
2018-06-09T14:51:40.682Z,38.37
2018-06-09T14:52:40.679Z,39.74
2018-06-09T14:54:34.133Z,40.53
2018-06-09T14:55:34.146Z,39.76
2018-06-09T14:57:27.572Z,38.96
2018-06-09T14:58:27.608Z,38.76
2018-06-09T15:00:20.568Z,38.39
2018-06-09T15:01:20.581Z,37.51
2018-06-09T15:03:14.008Z,37.02
2018-06-09T15:04:14.043Z,37.81
2018-06-09T15:06:06.996Z,38.88
2018-06-09T15:07:07.010Z,38.78
2018-06-09T15:08:59.947Z,38.68
2018-06-09T15:09:59.983Z,38.78
2018-06-09T15:11:52.937Z,39.49
2018-06-09T15:12:52.951Z,39.19
2018-06-09T15:14:45.890Z,39.86
2018-06-09T15:15:45.926Z,40.06
2018-06-09T15:17:38.888Z,39.56
2018-06-09T15:18:38.909Z,39.86
2018-06-09T15:20:31.860Z,39.86
2018-06-09T15:21:31.877Z,39.76
2018-06-09T15:23:24.818Z,39.94
2018-06-09T15:24:24.851Z,39.25
2018-06-09T15:26:17.808Z,39.15
2018-06-09T15:27:17.824Z,38.96
2018-06-09T15:29:10.755Z,38.98
2018-06-09T15:30:10.787Z,38.59
2018-06-09T15:32:03.761Z,38.37
2018-06-09T15:33:03.758Z,38.49
2018-06-09T15:34:56.695Z,38.00
2018-06-09T15:35:56.729Z,38.00
2018-06-09T15:37:49.685Z,38.10
2018-06-09T15:38:49.696Z,37.71
2018-06-09T15:40:42.652Z,37.61
2018-06-09T15:41:42.668Z,37.98
2018-06-09T15:43:35.601Z,38.68
2018-06-09T15:44:35.636Z,38.68
2018-06-09T15:46:30.125Z,37.90
2018-06-09T15:47:30.099Z,38.00
2018-06-09T15:49:23.033Z,37.81
2018-06-09T15:50:23.065Z,37.81
2018-06-09T15:52:16.521Z,38.02
2018-06-09T15:53:16.533Z,37.52
2018-06-09T15:55:11.000Z,36.84
2018-06-09T15:56:11.034Z,36.16
2018-06-09T15:58:04.051Z,37.33
2018-06-09T15:59:03.999Z,36.94
2018-06-09T16:00:56.984Z,37.73
2018-06-09T16:01:57.032Z,37.73
2018-06-09T16:03:49.935Z,37.52
2018-06-09T16:04:49.950Z,37.33
2018-06-09T16:06:42.909Z,37.13
2018-06-09T16:07:42.930Z,36.94
2018-06-09T16:09:35.861Z,37.04
2018-06-09T16:10:35.898Z,37.04
2018-06-09T16:12:28.938Z,35.96
2018-06-09T16:13:28.926Z,35.96
2018-06-09T16:15:21.951Z,36.14
2018-06-09T16:16:21.985Z,36.14
2018-06-09T16:18:15.536Z,36.55
2018-06-09T16:19:15.547Z,36.92
2018-06-09T16:21:08.572Z,37.12
2018-06-09T16:22:08.606Z,37.02
2018-06-09T16:24:01.649Z,37.21
2018-06-09T16:25:01.662Z,36.82
2018-06-09T16:26:54.703Z,36.14
2018-06-09T16:27:54.718Z,36.45
2018-06-09T16:29:47.741Z,36.45
2018-06-09T16:30:47.774Z,37.82
2018-06-09T16:32:40.856Z,37.51
2018-06-09T16:33:40.835Z,36.53
2018-06-09T16:35:33.854Z,37.73
2018-06-09T16:36:33.886Z,37.81
2018-06-09T16:38:26.943Z,38.20
2018-06-09T16:39:26.943Z,38.88
2018-06-09T16:41:20.479Z,38.59
2018-06-09T16:42:20.515Z,38.80
2018-06-09T16:44:13.558Z,37.33
2018-06-09T16:45:13.572Z,37.41
2018-06-09T16:47:06.593Z,37.33
2018-06-09T16:48:06.625Z,37.73
2018-06-09T16:50:00.179Z,36.94
2018-06-09T16:51:00.198Z,37.04
2018-06-09T16:52:53.235Z,37.92
2018-06-09T16:53:53.253Z,36.84
2018-06-09T16:55:46.282Z,36.86
2018-06-09T16:56:46.304Z,36.35
2018-06-09T16:58:39.351Z,35.96
2018-06-09T16:59:39.385Z,36.18
2018-06-09T17:01:32.415Z,35.66
2018-06-09T17:02:32.419Z,35.66
2018-06-09T17:04:25.975Z,35.66
2018-06-09T17:05:25.990Z,35.58
2018-06-09T17:07:19.012Z,35.08
2018-06-09T17:08:19.044Z,35.78
2018-06-09T17:10:12.084Z,35.97
2018-06-09T17:11:12.106Z,35.97
2018-06-09T17:13:05.122Z,36.76
2018-06-09T17:14:05.156Z,36.96
2018-06-09T17:15:58.198Z,36.37
2018-06-09T17:16:58.212Z,36.57
2018-06-09T17:18:51.252Z,35.86
2018-06-09T17:19:51.266Z,36.25
2018-06-09T17:21:44.293Z,36.74
2018-06-09T17:22:44.390Z,37.23
2018-06-09T17:24:37.367Z,36.94
2018-06-09T17:25:37.385Z,37.71
2018-06-09T17:27:30.402Z,37.19
2018-06-09T17:28:30.436Z,36.80
2018-06-09T17:30:23.484Z,37.47
2018-06-09T17:31:23.502Z,37.26
2018-06-09T17:33:16.519Z,37.14
2018-06-09T17:34:16.550Z,37.02
2018-06-09T17:36:10.108Z,37.01
2018-06-09T17:37:10.121Z,36.52
2018-06-09T17:39:04.575Z,37.29
2018-06-09T17:40:04.608Z,37.75
2018-06-09T17:41:57.569Z,38.92
2018-06-09T17:42:57.579Z,39.49
2018-06-09T17:44:50.542Z,39.41
2018-06-09T17:45:50.549Z,40.19
2018-06-09T17:47:43.486Z,40.00
2018-06-09T17:48:43.518Z,40.29
2018-06-09T17:50:38.045Z,40.68
2018-06-09T17:51:37.991Z,41.35
2018-06-09T17:53:30.931Z,42.10
2018-06-09T17:54:30.961Z,42.41
2018-06-09T17:56:24.405Z,43.27
2018-06-09T17:57:24.455Z,44.34
2018-06-09T17:59:17.358Z,44.93
2018-06-09T18:00:17.389Z,45.32
2018-06-09T18:02:10.346Z,45.03
2018-06-09T18:03:10.364Z,44.93
2018-06-09T18:05:03.805Z,45.71
2018-06-09T18:06:03.831Z,45.90
2018-06-09T18:07:57.287Z,45.42
2018-06-09T18:08:57.301Z,45.22
2018-06-09T18:10:50.256Z,46.02
2018-06-09T18:11:50.271Z,46.10
2018-06-09T18:13:43.704Z,47.17
2018-06-09T18:14:43.742Z,47.46
2018-06-09T18:16:36.689Z,48.05
2018-06-09T18:17:36.700Z,47.95
2018-06-09T18:19:29.781Z,48.24
2018-06-09T18:20:29.667Z,47.85
2018-06-09T18:22:22.618Z,47.73
2018-06-09T18:23:22.632Z,47.27
2018-06-09T18:25:18.561Z,47.17
2018-06-09T18:26:18.593Z,47.17
2018-06-09T18:28:11.585Z,47.27
2018-06-09T18:29:11.595Z,47.36
2018-06-09T18:31:04.550Z,46.51
2018-06-09T18:32:04.558Z,46.41
2018-06-09T18:33:57.554Z,45.65